Aérodrome :
LOGIN :

S'inscrire | Disclaimer

   EN    FR    IT 

 










Légende :    VFR   VFR Marginal   IFR   IFR Intensif   IFR Très Intensif
Visi : 
Plafond : 
>= 8 km
>= 3000ft
5 à 8 km
1000 à 3000 ft
1500m à 5 km
500 à 1000 ft
800 à 1500m
200 à 500 ft
< 800m
< 200 ft
Symboles :   Orages  Brouillard  Fortes neiges  Fortes précipitations  Vent > 20 kt
SIGMETs :   Divers  Orages  Givrage  Turbulence  Onde Orograph.  Cendres Volcan.







- Altitude de l'aérodrome : 231 ft
- Code IATA : WTN


EGXW - RAF Waddington

DERNIER METAR :
  • 222050Z 02014KT 9999 BKN012 11/08 Q1022 GRN

METARs EXPIRÉS :
  • 222026Z 02015KT 9999 BKN012 11/08 Q1022 GRN
  • 221950Z 02013KT 9999 FEW012 11/08 Q1022 BLU
  • 221850Z AUTO 02013KT 9999 NCD 13/09 Q1021

TAF TAF EGXW
Valide du 22 à 21h jusqu'au 23 à 15h UTC


221924Z 2221/2315 02012KT 9999 FEW010
BECMG 2221/2222 BKN010
PROB40 2223/2308 4000 BR BKN006
PROB30
TEMPO 2301/2307 BKN004
BECMG 2308/2311 FEW012
Pas de NOTAMs connus pour ce terrain.



MET'MAP, la Météo Aéronautique d'un coup d'oeil ! - Copyright ORBIFLY Décembre 2007 - Disclaimer

ORBIFLY MET'MAP TEAM :

Programmation & Développement : Alexandra Zaïnal
Conception & Développement : Baudouin d'Aumeries
Co-Programmation & Développement : Marc-Olivier Méhu
Soutien technique & logistique : Manuel Goepfert

Contact : metmap@orbifly.com




SOURCES & CREDITS :

   NOAA